Time;durP1;ratioP1;P1;durP2;ratioP2;P2;SDS_P1;SDS_P2;PMS_P1;PMS_P2;Temp;Humidity;BMP_temperature;BMP_pressure;BME280_temperature;BME280_humidity;BME280_pressure;Samples;Min_cycle;Max_cycle;Signal;HPM_P1;HPM_P2
2022/01/18 00:00:24;;;;;;;1999.90;999.90;;;6.90;99.90;;;;;;5071905;28;20040;-66
2022/01/18 00:02:50;;;;;;;1999.90;999.90;;;6.80;99.90;;;;;;5071876;28;20498;-66
2022/01/18 00:05:17;;;;;;;1999.90;999.90;;;6.70;99.90;;;;;;5061403;28;20100;-66
2022/01/18 00:07:45;;;;;;;1999.90;999.90;;;6.60;99.90;;;;;;5055896;28;20116;-66
2022/01/18 00:10:11;;;;;;;1999.90;999.90;;;6.60;99.90;;;;;;5070716;28;20380;-66
2022/01/18 00:13:06;;;;;;;1999.90;999.90;;;6.60;99.90;;;;;;5075426;28;20051;-66
2022/01/18 00:23:01;;;;;;;1999.90;999.90;;;6.40;99.90;;;;;;5068840;28;20049;-66
2022/01/18 00:25:27;;;;;;;1999.90;999.90;;;6.30;99.90;;;;;;5054842;28;20403;-66
2022/01/18 00:27:53;;;;;;;1999.90;999.90;;;6.30;99.90;;;;;;5070519;28;20462;-66
2022/01/18 00:33:10;;;;;;;1999.90;999.90;;;6.20;99.90;;;;;;5054788;28;20056;-66
2022/01/18 00:35:36;;;;;;;1999.90;999.90;;;6.10;99.90;;;;;;5061373;28;20436;-66
2022/01/18 00:38:14;;;;;;;1999.90;999.90;;;6.00;99.90;;;;;;5075512;28;20116;-66
2022/01/18 00:40:39;;;;;;;1999.90;999.90;;;6.10;99.90;;;;;;5074158;28;20475;-66
2022/01/18 00:43:05;;;;;;;1999.90;999.90;;;5.90;99.90;;;;;;5073557;28;20040;-66
2022/01/18 00:45:31;;;;;;;1999.90;999.90;;;5.90;99.90;;;;;;5069190;28;20045;-66
2022/01/18 00:47:57;;;;;;;1999.90;999.90;;;5.80;99.90;;;;;;5075059;28;20162;-66
2022/01/18 00:50:26;;;;;;;1999.90;999.90;;;5.80;99.90;;;;;;5075207;28;20047;-66
2022/01/18 00:52:53;;;;;;;1999.90;999.90;;;5.80;99.90;;;;;;5074045;28;20067;-66
2022/01/18 00:55:19;;;;;;;1999.90;999.90;;;5.80;99.90;;;;;;5075095;28;20141;-66
2022/01/18 00:57:45;;;;;;;1999.90;999.90;;;5.70;99.90;;;;;;5075440;28;20132;-66
2022/01/18 01:00:11;;;;;;;1999.90;999.90;;;5.70;99.90;;;;;;5074417;28;20112;-66
2022/01/18 01:02:37;;;;;;;1999.90;999.90;;;5.60;99.90;;;;;;5074388;28;20048;-66
2022/01/18 01:05:04;;;;;;;1999.90;999.90;;;5.60;99.90;;;;;;5065035;28;20119;-66
2022/01/18 01:07:30;;;;;;;1999.90;999.90;;;5.50;99.90;;;;;;5053841;28;20142;-66
2022/01/18 01:09:55;;;;;;;1999.90;999.90;;;5.50;99.90;;;;;;5054583;28;20079;-66
2022/01/18 01:12:24;;;;;;;1999.90;999.90;;;5.40;99.90;;;;;;5071862;28;20050;-66
2022/01/18 01:14:52;;;;;;;1999.90;999.90;;;5.40;99.90;;;;;;5064184;28;20062;-66
2022/01/18 01:33:55;;;;;;;1999.90;999.90;;;5.20;99.90;;;;;;5054173;28;20060;-66
2022/01/18 01:41:47;;;;;;;1999.90;999.90;;;5.00;99.90;;;;;;5074546;28;20536;-66
2022/01/18 01:46:40;;;;;;;1999.90;999.90;;;5.00;99.90;;;;;;5061577;28;20040;-66
2022/01/18 01:49:11;;;;;;;1999.90;999.90;;;5.10;99.90;;;;;;5073091;28;20052;-66
2022/01/18 01:51:37;;;;;;;1999.90;999.90;;;5.10;99.90;;;;;;5074292;28;20119;-66
2022/01/18 01:54:06;;;;;;;1999.90;999.90;;;5.20;99.90;;;;;;5073892;28;20144;-66
2022/01/18 01:56:32;;;;;;;1999.90;999.90;;;5.20;99.90;;;;;;5072901;28;20132;-66
2022/01/18 01:58:58;;;;;;;1999.90;999.90;;;5.20;99.90;;;;;;5073882;28;20513;-66
2022/01/18 02:01:24;;;;;;;1999.90;999.90;;;5.20;99.90;;;;;;5073590;28;20114;-66
2022/01/18 02:03:50;;;;;;;1999.90;999.90;;;5.20;99.90;;;;;;5072414;28;20037;-66
2022/01/18 02:06:16;;;;;;;1999.90;999.90;;;5.30;99.90;;;;;;5052332;28;20053;-66
2022/01/18 02:08:43;;;;;;;1999.90;999.90;;;5.30;99.90;;;;;;5053362;28;20068;-66
2022/01/18 02:11:09;;;;;;;1999.90;999.90;;;5.30;99.90;;;;;;5053256;28;20045;-66
2022/01/18 02:13:35;;;;;;;1999.90;999.90;;;5.40;99.90;;;;;;5064623;28;20494;-66
2022/01/18 02:24:02;;;;;;;1999.90;999.90;;;5.30;99.90;;;;;;5057200;28;20057;-66
2022/01/18 02:26:27;;;;;;;1999.90;999.90;;;5.30;99.90;;;;;;5053581;28;20087;-66
2022/01/18 02:28:54;;;;;;;1999.90;999.90;;;5.30;99.90;;;;;;5052332;28;20053;-66
2022/01/18 02:31:20;;;;;;;1999.90;999.90;;;5.40;99.90;;;;;;5063791;28;20771;-66
2022/01/18 02:33:46;;;;;;;1999.90;999.90;;;5.40;99.90;;;;;;5073444;28;20055;-66
2022/01/18 02:36:11;;;;;;;1999.90;999.90;;;5.40;99.90;;;;;;5073530;28;20056;-66
2022/01/18 02:38:37;;;;;;;1999.90;999.90;;;5.40;99.90;;;;;;5072125;28;20056;-66
2022/01/18 02:41:03;;;;;;;1999.90;999.90;;;5.40;99.90;;;;;;5053773;28;20049;-66
2022/01/18 02:43:46;;;;;;;1999.90;999.90;;;5.40;99.90;;;;;;5047808;28;20392;-66
2022/01/18 02:46:12;;;;;;;;;;;5.40;99.90;;;;;;5032638;28;20084;-66
2022/01/18 02:48:38;;;;;;;1999.90;999.90;;;5.50;99.90;;;;;;5050065;28;19951;-66
2022/01/18 02:51:04;;;;;;;1999.90;999.90;;;5.50;99.90;;;;;;5073201;28;20045;-66
2022/01/18 02:53:30;;;;;;;1999.90;999.90;;;5.60;99.90;;;;;;5071833;28;20502;-66
2022/01/18 02:55:58;;;;;;;1999.90;999.90;;;5.60;99.90;;;;;;5073107;28;20046;-66
2022/01/18 02:58:29;;;;;;;1999.90;999.90;;;5.60;99.90;;;;;;5072594;28;20123;-66
2022/01/18 03:03:36;;;;;;;1999.90;999.90;;;5.70;99.90;;;;;;5073196;28;20044;-66
2022/01/18 03:06:03;;;;;;;1999.90;999.90;;;5.70;99.90;;;;;;5060285;28;20044;-66
2022/01/18 03:08:30;;;;;;;1999.90;999.90;;;5.60;99.90;;;;;;5061818;28;20053;-66
2022/01/18 03:10:56;;;;;;;1999.90;999.90;;;5.60;99.90;;;;;;5052866;28;20174;-66
2022/01/18 03:13:22;;;;;;;1999.90;999.90;;;5.70;99.90;;;;;;5050724;28;20074;-66
2022/01/18 03:15:48;;;;;;;1999.90;999.90;;;5.80;99.90;;;;;;5056351;28;20109;-66
2022/01/18 03:18:14;;;;;;;1999.90;999.90;;;5.80;99.90;;;;;;5053184;28;20120;-66
2022/01/18 03:20:40;;;;;;;1999.90;999.90;;;5.90;99.90;;;;;;5052123;28;20179;-66
2022/01/18 03:23:11;;;;;;;1999.90;999.90;;;5.80;99.90;;;;;;5051377;28;20128;-66
2022/01/18 03:25:56;;;;;;;1999.90;999.90;;;5.90;99.90;;;;;;5072844;28;20172;-66
2022/01/18 03:28:24;;;;;;;1999.90;999.90;;;5.90;99.90;;;;;;5071866;28;20049;-66
2022/01/18 03:30:54;;;;;;;1999.90;999.90;;;5.90;99.90;;;;;;5055309;28;20479;-66
2022/01/18 03:33:22;;;;;;;1999.90;999.90;;;5.80;99.90;;;;;;5064638;28;20044;-66
2022/01/18 03:35:50;;;;;;;1999.90;999.90;;;5.90;99.90;;;;;;5071938;28;20479;-66
2022/01/18 03:38:17;;;;;;;1999.90;999.90;;;5.90;99.90;;;;;;5072381;28;20044;-66
2022/01/18 03:40:42;;;;;;;1999.90;999.90;;;6.00;99.90;;;;;;5076195;28;20060;-66
2022/01/18 03:43:11;;;;;;;1999.90;999.90;;;6.00;99.90;;;;;;5073429;28;20032;-66
2022/01/18 03:45:44;;;;;;;1999.90;999.90;;;6.10;99.90;;;;;;5056444;28;20067;-66
2022/01/18 03:48:16;;;;;;;1999.90;999.90;;;6.10;99.90;;;;;;5056436;28;20049;-66
2022/01/18 03:50:42;;;;;;;1999.90;999.90;;;6.10;99.90;;;;;;5063621;28;20319;-66
2022/01/18 03:53:11;;;;;;;1999.90;999.90;;;6.10;99.90;;;;;;5076368;28;20052;-66
2022/01/18 03:55:37;;;;;;;1999.90;999.90;;;6.10;99.90;;;;;;5075745;28;20359;-66
2022/01/18 03:58:02;;;;;;;1999.90;999.90;;;6.20;99.90;;;;;;5076574;28;20051;-66
2022/01/18 04:00:29;;;;;;;1999.90;999.90;;;6.20;99.90;;;;;;5075182;28;20041;-66
2022/01/18 04:02:55;;;;;;;1999.90;999.90;;;6.20;99.90;;;;;;5074176;28;20055;-66
2022/01/18 04:05:22;;;;;;;1999.90;999.90;;;6.20;99.90;;;;;;5063739;28;20060;-66
2022/01/18 04:07:48;;;;;;;1999.90;999.90;;;6.20;99.90;;;;;;5056020;28;20114;-66
2022/01/18 04:10:14;;;;;;;1999.90;999.90;;;6.20;99.90;;;;;;5055184;28;20067;-66
2022/01/18 04:12:40;;;;;;;1999.90;999.90;;;6.30;99.90;;;;;;5056142;28;20049;-66
2022/01/18 04:15:09;;;;;;;1999.90;999.90;;;6.30;99.90;;;;;;5067770;28;20502;-66
2022/01/18 04:28:42;;;;;;;1999.90;999.90;;;6.20;99.90;;;;;;5075801;28;20055;-66
2022/01/18 04:31:09;;;;;;;1999.90;999.90;;;6.20;99.90;;;;;;5055599;28;20127;-66
2022/01/18 04:33:37;;;;;;;1999.90;999.90;;;6.30;99.90;;;;;;5055660;28;20413;-66
2022/01/18 04:36:04;;;;;;;1999.90;999.90;;;6.30;99.90;;;;;;5070321;28;20136;-66
2022/01/18 04:38:30;;;;;;;1999.90;999.90;;;6.30;99.90;;;;;;5054945;28;20099;-66
2022/01/18 04:41:06;;;;;;;1999.90;999.90;;;6.30;99.90;;;;;;5055665;28;20475;-66
2022/01/18 04:49:04;;;;;;;1999.90;999.90;;;6.40;99.90;;;;;;5055340;28;20138;-65
2022/01/18 04:51:30;;;;;;;1999.90;999.90;;;6.50;99.90;;;;;;5054272;28;20130;-66
2022/01/18 04:53:58;;;;;;;1999.90;999.90;;;6.60;99.90;;;;;;5074534;28;20082;-66
2022/01/18 04:57:51;;;;;;;1999.90;999.90;;;6.40;99.90;;;;;;5075474;28;20044;-66
2022/01/18 04:59:13;;;;;;;1999.90;999.90;;;6.40;99.90;;;;;;5074103;28;20052;-66
2022/01/18 05:01:41;;;;;;;1999.90;999.90;;;6.50;99.90;;;;;;5074761;28;20142;-66
2022/01/18 05:04:07;;;;;;;1999.90;999.90;;;6.40;99.90;;;;;;5073058;28;20048;-66
2022/01/18 05:06:34;;;;;;;1999.90;999.90;;;6.50;99.90;;;;;;5053647;28;20075;-66
2022/01/18 05:09:06;;;;;;;1999.90;999.90;;;6.40;99.90;;;;;;5054822;28;20120;-65
2022/01/18 05:11:36;;;;;;;1999.90;999.90;;;6.40;99.90;;;;;;5074508;28;20063;-66
2022/01/18 05:16:49;;;;;;;1999.90;999.90;;;6.40;99.90;;;;;;5054732;28;20548;-66
2022/01/18 05:24:26;;;;;;;1999.90;999.90;;;6.30;99.90;;;;;;5058615;28;20195;-66
2022/01/18 05:26:53;;;;;;;1999.90;999.90;;;6.20;99.90;;;;;;5053986;28;20060;-66
2022/01/18 05:29:20;;;;;;;1999.90;999.90;;;6.20;99.90;;;;;;5070130;28;20077;-66
2022/01/18 05:31:46;;;;;;;1999.90;999.90;;;6.20;99.90;;;;;;5054501;28;20052;-66
2022/01/18 05:34:13;;;;;;;1999.90;999.90;;;6.20;99.90;;;;;;5053613;28;20049;-66
2022/01/18 05:36:39;;;;;;;1999.90;999.90;;;6.30;99.90;;;;;;5061990;28;20048;-66
2022/01/18 05:39:09;;;;;;;1999.90;999.90;;;6.30;99.90;;;;;;5074593;28;20072;-66
2022/01/18 05:41:36;;;;;;;1999.90;999.90;;;6.30;99.90;;;;;;5073691;28;20123;-66
2022/01/18 05:44:03;;;;;;;1999.90;999.90;;;6.30;99.90;;;;;;5064312;28;20467;-66
2022/01/18 05:46:29;;;;;;;1999.90;999.90;;;6.20;99.90;;;;;;5070229;28;20044;-66
2022/01/18 05:48:55;;;;;;;1999.90;999.90;;;6.30;99.90;;;;;;5073336;28;20044;-66
2022/01/18 05:51:21;;;;;;;1999.90;999.90;;;6.30;99.90;;;;;;5074038;28;20052;-66
2022/01/18 05:53:46;;;;;;;1999.90;999.90;;;6.30;99.90;;;;;;5073553;28;20100;-66
2022/01/18 05:56:12;;;;;;;1999.90;999.90;;;6.30;99.90;;;;;;5073562;28;20136;-66
2022/01/18 05:58:45;;;;;;;1999.90;999.90;;;6.30;99.90;;;;;;5073685;28;20538;-66
2022/01/18 06:01:13;;;;;;;1999.90;999.90;;;6.30;99.90;;;;;;5074006;28;20056;-66
2022/01/18 06:03:54;;;;;;;1999.90;999.90;;;6.30;99.90;;;;;;5072795;28;20367;-66
2022/01/18 06:09:04;;;;;;;1999.90;999.90;;;6.20;99.90;;;;;;5052131;28;20092;-66
2022/01/18 06:11:30;;;;;;;1999.90;999.90;;;6.30;99.90;;;;;;5057402;28;20504;-66
2022/01/18 06:13:56;;;;;;;1999.90;999.90;;;6.30;99.90;;;;;;5070809;28;20052;-66
2022/01/18 06:16:22;;;;;;;1999.90;999.90;;;6.30;99.90;;;;;;5053068;28;20057;-66
2022/01/18 06:18:47;;;;;;;1999.90;999.90;;;6.30;99.90;;;;;;5053784;28;20107;-66
2022/01/18 06:21:13;;;;;;;1999.90;999.90;;;6.20;99.90;;;;;;5063845;28;20040;-66
2022/01/18 06:23:39;;;;;;;1999.90;999.90;;;6.20;99.90;;;;;;5061856;28;20407;-66
2022/01/18 06:26:04;;;;;;;1999.90;999.90;;;6.20;99.90;;;;;;5053691;28;20063;-66
2022/01/18 06:28:32;;;;;;;1999.90;999.90;;;6.20;99.90;;;;;;5052788;28;20049;-66
2022/01/18 06:30:58;;;;;;;1999.90;999.90;;;6.10;99.90;;;;;;5052578;28;20387;-66
2022/01/18 06:33:24;;;;;;;1999.90;999.90;;;6.10;99.90;;;;;;5052046;28;20057;-66
2022/01/18 06:35:50;;;;;;;1999.90;999.90;;;6.10;99.90;;;;;;5053026;28;20053;-66
2022/01/18 06:38:16;;;;;;;1999.90;999.90;;;6.00;99.90;;;;;;5057660;28;20048;-66
2022/01/18 06:40:42;;;;;;;1999.90;999.90;;;6.00;99.90;;;;;;5071842;28;20052;-66
2022/01/18 06:43:08;;;;;;;1999.90;999.90;;;6.10;99.90;;;;;;5070760;28;20056;-66
2022/01/18 06:45:34;;;;;;;1999.90;999.90;;;6.00;99.90;;;;;;5052521;28;20060;-66
2022/01/18 06:47:59;;;;;;;1999.90;999.90;;;6.00;99.90;;;;;;5065276;28;20067;-66
2022/01/18 06:50:25;;;;;;;1999.90;999.90;;;6.00;99.90;;;;;;5072708;28;20059;-66
2022/01/18 06:52:51;;;;;;;1999.90;999.90;;;6.00;99.90;;;;;;5071227;28;20058;-66
2022/01/18 06:55:17;;;;;;;1999.90;999.90;;;6.00;99.90;;;;;;5071718;28;20063;-66
2022/01/18 06:57:43;;;;;;;1999.90;999.90;;;6.00;99.90;;;;;;5052419;28;20048;-66
2022/01/18 07:00:09;;;;;;;1999.90;999.90;;;6.00;99.90;;;;;;5052082;28;20033;-66
2022/01/18 07:02:35;;;;;;;1999.90;999.90;;;6.00;99.90;;;;;;5051001;28;20132;-66
2022/01/18 07:05:01;;;;;;;1999.90;999.90;;;6.00;99.90;;;;;;5054470;28;20124;-66
2022/01/18 07:07:26;;;;;;;1999.90;999.90;;;5.90;99.90;;;;;;5051956;28;20063;-66
2022/01/18 07:09:52;;;;;;;1999.90;999.90;;;5.90;99.90;;;;;;5052829;28;20080;-66
2022/01/18 07:12:18;;;;;;;1999.90;999.90;;;5.90;99.90;;;;;;5051092;28;20052;-66
2022/01/18 07:14:44;;;;;;;1999.90;999.90;;;5.90;99.90;;;;;;5053936;28;20106;-66
2022/01/18 07:17:11;;;;;;;1999.90;999.90;;;5.90;99.90;;;;;;5052222;28;20049;-66
2022/01/18 07:19:38;;;;;;;1999.90;999.90;;;5.90;99.90;;;;;;5051276;28;20056;-66
2022/01/18 07:22:05;;;;;;;1999.90;999.90;;;5.90;99.90;;;;;;5053039;28;20502;-66
2022/01/18 07:24:40;;;;;;;1999.90;999.90;;;5.90;99.90;;;;;;5050214;28;20082;-66
2022/01/18 07:27:08;;;;;;;1999.90;999.90;;;5.80;99.90;;;;;;5049582;28;20457;-66
2022/01/18 07:29:34;;;;;;;1999.90;999.90;;;5.80;99.90;;;;;;5051384;28;20045;-66
2022/01/18 07:32:00;;;;;;;1999.90;999.90;;;5.80;99.90;;;;;;5052079;28;20673;-66
2022/01/18 07:34:26;;;;;;;1999.90;999.90;;;5.70;99.90;;;;;;5051247;28;20037;-66
2022/01/18 07:36:52;;;;;;;1999.90;999.90;;;5.70;99.90;;;;;;5052295;28;20045;-66
2022/01/18 07:39:18;;;;;;;1999.90;999.90;;;5.70;99.90;;;;;;5052274;28;20048;-66
2022/01/18 07:41:44;;;;;;;1999.90;999.90;;;5.70;99.90;;;;;;5069103;28;20076;-66
2022/01/18 07:44:10;;;;;;;1999.90;999.90;;;5.70;99.90;;;;;;5061825;28;20086;-66
2022/01/18 07:46:36;;;;;;;1999.90;999.90;;;5.70;99.90;;;;;;5052489;28;20049;-66
2022/01/18 07:49:01;;;;;;;1999.90;999.90;;;5.70;99.90;;;;;;5055702;28;20041;-66
2022/01/18 07:51:27;;;;;;;1999.90;999.90;;;5.70;99.90;;;;;;5072398;28;20059;-66
2022/01/18 07:53:53;;;;;;;1999.90;999.90;;;5.60;99.90;;;;;;5072538;28;20479;-66
2022/01/18 07:56:18;;;;;;;1999.90;999.90;;;5.60;99.90;;;;;;5071344;28;20090;-66
2022/01/18 07:58:45;;;;;;;1999.90;999.90;;;5.70;99.90;;;;;;5070417;28;20052;-66
2022/01/18 08:01:10;;;;;;;1999.90;999.90;;;5.70;99.90;;;;;;5070950;28;20051;-66
2022/01/18 08:03:36;;;;;;;1999.90;999.90;;;5.70;99.90;;;;;;5071333;28;20059;-66
2022/01/18 08:06:02;;;;;;;1999.90;999.90;;;5.70;99.90;;;;;;5054107;28;20534;-66
2022/01/18 08:08:28;;;;;;;1999.90;999.90;;;5.80;99.90;;;;;;5061268;28;20124;-66
2022/01/18 08:10:54;;;;;;;1999.90;999.90;;;5.80;99.90;;;;;;5051308;28;20041;-66
2022/01/18 08:13:28;;;;;;;1999.90;999.90;;;5.80;99.90;;;;;;5052394;28;20048;-66
2022/01/18 08:16:21;;;;;;;1999.90;999.90;;;5.80;99.90;;;;;;5069418;28;20044;-66
2022/01/18 08:18:46;;;;;;;1999.90;999.90;;;5.90;99.90;;;;;;5071537;28;20049;-66
2022/01/18 08:21:12;;;;;;;1999.90;999.90;;;5.90;99.90;;;;;;5072437;28;20040;-66
2022/01/18 08:23:37;;;;;;;1999.90;999.90;;;5.90;99.90;;;;;;5060964;28;20053;-66
2022/01/18 08:26:03;;;;;;;1999.90;999.90;;;5.90;99.90;;;;;;5069814;28;20052;-66
2022/01/18 08:28:29;;;;;;;1999.90;999.90;;;5.90;99.90;;;;;;5075861;28;20084;-66
2022/01/18 08:30:54;;;;;;;1999.90;999.90;;;5.90;99.90;;;;;;5056660;28;20055;-66
2022/01/18 08:33:20;;;;;;;1999.90;999.90;;;5.90;99.90;;;;;;5051598;28;20056;-66
2022/01/18 08:35:46;;;;;;;1999.90;999.90;;;5.80;99.90;;;;;;5054629;28;20041;-66
2022/01/18 08:38:12;;;;;;;1999.90;999.90;;;5.90;99.90;;;;;;5050483;28;20491;-66
2022/01/18 08:40:37;;;;;;;1999.90;999.90;;;5.90;99.90;;;;;;5068081;28;20521;-66
2022/01/18 08:43:03;;;;;;;1999.90;999.90;;;5.90;99.90;;;;;;5072873;28;20123;-66
2022/01/18 08:45:29;;;;;;;1999.90;999.90;;;5.90;99.90;;;;;;5054493;28;20060;-66
2022/01/18 08:47:54;;;;;;;1999.90;999.90;;;5.90;99.90;;;;;;5054388;28;20060;-66
2022/01/18 08:50:20;;;;;;;1999.90;999.90;;;5.90;99.90;;;;;;5048503;28;20041;-66
2022/01/18 08:52:50;;;;;;;1999.90;999.90;;;6.00;99.90;;;;;;5053779;28;20045;-66
2022/01/18 08:55:17;;;;;;;1999.90;999.90;;;6.00;99.90;;;;;;5054328;28;20503;-66
2022/01/18 08:57:43;;;;;;;1999.90;999.90;;;6.10;99.90;;;;;;5063025;28;20041;-66
2022/01/18 09:00:10;;;;;;;1999.90;999.90;;;6.10;99.90;;;;;;5072125;28;20067;-66
2022/01/18 09:02:37;;;;;;;1999.90;999.90;;;6.10;99.90;;;;;;5074797;28;20494;-66
2022/01/18 09:05:03;;;;;;;1999.90;999.90;;;6.20;99.90;;;;;;5064453;28;20065;-66
2022/01/18 09:07:31;;;;;;;1999.90;999.90;;;6.20;99.90;;;;;;5069932;28;20076;-66
2022/01/18 09:10:04;;;;;;;1999.90;999.90;;;6.30;99.90;;;;;;5069354;28;20048;-66
2022/01/18 09:12:29;;;;;;;1999.90;999.90;;;6.30;99.90;;;;;;5074108;28;20057;-66
2022/01/18 09:14:55;;;;;;;1999.90;999.90;;;6.30;99.90;;;;;;5051691;28;20427;-66
2022/01/18 09:17:21;;;;;;;1999.90;999.90;;;6.40;99.90;;;;;;5040940;28;20037;-66
2022/01/18 09:19:47;;;;;;;1999.90;999.90;;;6.30;99.90;;;;;;5069695;28;20041;-66
2022/01/18 09:22:12;;;;;;;1999.90;999.90;;;6.30;99.90;;;;;;5052793;28;20103;-66
2022/01/18 09:24:38;;;;;;;1999.90;999.90;;;6.40;99.90;;;;;;5054240;28;20493;-66
2022/01/18 09:27:04;;;;;;;1999.90;999.90;;;6.40;99.90;;;;;;5052695;28;20380;-66
2022/01/18 09:29:31;;;;;;;1999.90;999.90;;;6.40;99.90;;;;;;5035695;28;20511;-66
2022/01/18 09:31:57;;;;;;;1999.90;999.90;;;6.50;99.90;;;;;;5050305;28;20044;-66
2022/01/18 09:34:23;;;;;;;1999.90;999.90;;;6.50;99.90;;;;;;5053833;28;20116;-66
2022/01/18 09:36:48;;;;;;;1999.90;999.90;;;6.50;99.90;;;;;;5071769;28;20454;-66
2022/01/18 09:39:14;;;;;;;1999.90;999.90;;;6.50;99.90;;;;;;5074513;28;20052;-66
2022/01/18 09:41:46;;;;;;;1999.90;999.90;;;6.60;99.90;;;;;;5060223;28;20050;-66
2022/01/18 09:44:12;;;;;;;1999.90;999.90;;;6.60;99.90;;;;;;5040826;28;20047;-66
2022/01/18 09:46:38;;;;;;;1999.90;999.90;;;6.60;99.90;;;;;;5068966;28;20056;-66
2022/01/18 09:49:05;;;;;;;1999.90;999.90;;;6.70;99.90;;;;;;5052642;28;20084;-66
2022/01/18 09:51:31;;;;;;;1999.90;999.90;;;6.70;99.90;;;;;;5068118;28;20053;-65
2022/01/18 09:53:58;;;;;;;1999.90;999.90;;;6.70;99.90;;;;;;5059851;28;20048;-66
2022/01/18 09:56:24;;;;;;;1999.90;999.90;;;6.80;99.90;;;;;;5051169;28;20055;-66
2022/01/18 09:58:50;;;;;;;1999.90;999.90;;;6.80;99.90;;;;;;5054487;28;20049;-66
2022/01/18 10:01:16;;;;;;;1999.90;999.90;;;6.70;99.90;;;;;;5051334;28;20052;-66
2022/01/18 10:03:42;;;;;;;1999.90;999.90;;;6.80;99.90;;;;;;5055279;28;20048;-65
2022/01/18 10:06:10;;;;;;;1999.90;999.90;;;6.80;99.90;;;;;;5053376;28;20545;-66
2022/01/18 10:08:39;;;;;;;1999.90;999.90;;;6.80;99.90;;;;;;5060501;28;20044;-66
2022/01/18 10:11:15;;;;;;;1999.90;999.90;;;6.80;99.90;;;;;;5064122;28;20124;-65
2022/01/18 10:13:45;;;;;;;1999.90;999.90;;;6.80;99.90;;;;;;5053328;28;20043;-66
2022/01/18 10:16:14;;;;;;;1999.90;999.90;;;6.80;99.90;;;;;;5052513;28;20045;-66
2022/01/18 10:18:47;;;;;;;1999.90;999.90;;;6.80;99.90;;;;;;5052105;28;20041;-65
2022/01/18 10:21:24;;;;;;;1999.90;999.90;;;6.80;99.90;;;;;;5072184;28;20045;-65
2022/01/18 10:23:50;;;;;;;1999.90;999.90;;;6.90;99.90;;;;;;5060039;28;20060;-65
2022/01/18 10:26:21;;;;;;;1999.90;999.90;;;6.90;99.90;;;;;;5053160;28;20126;-66
2022/01/18 10:28:57;;;;;;;1999.90;999.90;;;6.90;99.90;;;;;;5060097;28;20131;-65
2022/01/18 10:31:42;;;;;;;1999.90;999.90;;;7.00;99.90;;;;;;5031967;28;20111;-65
2022/01/18 10:34:28;;;;;;;1999.90;999.90;;;7.00;99.90;;;;;;5050767;28;20507;-65
2022/01/18 10:36:58;;;;;;;1999.90;999.90;;;7.00;99.90;;;;;;5053619;28;20037;-66
2022/01/18 10:39:33;;;;;;;1999.90;999.90;;;7.10;99.90;;;;;;5072942;28;20040;-66
2022/01/18 10:42:00;;;;;;;1999.90;999.90;;;7.10;99.90;;;;;;5071864;28;20052;-65
2022/01/18 10:44:25;;;;;;;1999.90;999.90;;;7.10;99.90;;;;;;5059265;28;20543;-65
2022/01/18 10:46:55;;;;;;;1999.90;999.90;;;7.10;99.90;;;;;;5064318;28;20155;-65
2022/01/18 10:49:29;;;;;;;1999.90;999.90;;;7.20;99.90;;;;;;5072489;28;20084;-65
2022/01/18 10:51:59;;;;;;;1999.90;999.90;;;7.20;99.90;;;;;;5058729;28;20422;-65
2022/01/18 10:54:35;;;;;;;1999.90;999.90;;;7.30;99.90;;;;;;5053613;28;20475;-65
2022/01/18 10:57:03;;;;;;;1999.90;999.90;;;7.40;99.90;;;;;;5071134;28;20044;-66
2022/01/18 10:59:29;;;;;;;1999.90;999.90;;;7.40;99.90;;;;;;5051587;28;20084;-66
2022/01/18 11:02:08;;;;;;;1999.90;999.90;;;7.50;99.90;;;;;;5051951;28;20558;-66
2022/01/18 11:04:34;;;;;;;1999.90;999.90;;;7.50;99.90;;;;;;5050571;28;20089;-65
2022/01/18 11:07:02;;;;;;;1999.90;999.90;;;7.50;99.90;;;;;;5051464;28;20138;-66
2022/01/18 11:09:29;;;;;;;1999.90;999.90;;;7.50;99.90;;;;;;5051647;28;20135;-66
2022/01/18 11:11:55;;;;;;;1999.90;999.90;;;7.50;99.90;;;;;;5051994;28;20053;-66
2022/01/18 11:14:22;;;;;;;1999.90;999.90;;;7.50;99.90;;;;;;5064773;28;20129;-65
2022/01/18 11:16:50;;;;;;;1999.90;999.90;;;7.50;99.90;;;;;;5052750;28;20053;-65
2022/01/18 11:19:31;;;;;;;1999.90;999.90;;;7.70;99.90;;;;;;5052147;28;20059;-66
2022/01/18 11:22:03;;;;;;;1999.90;999.90;;;7.70;99.90;;;;;;5061774;28;20648;-65
2022/01/18 11:24:29;;;;;;;1999.90;999.90;;;8.00;99.90;;;;;;5054428;28;20072;-65
2022/01/18 11:26:56;;;;;;;1999.90;999.90;;;7.90;99.90;;;;;;5051961;28;20048;-65
2022/01/18 11:29:22;;;;;;;1999.90;999.90;;;7.80;99.90;;;;;;5046829;28;20060;-65
2022/01/18 11:31:51;;;;;;;1999.90;999.90;;;7.70;99.90;;;;;;5067536;28;20098;-66
2022/01/18 11:34:36;;;;;;;1999.90;999.90;;;7.50;99.90;;;;;;5070549;28;20463;-65
2022/01/18 11:37:14;;;;;;;1999.90;999.90;;;7.50;99.90;;;;;;5072990;28;20036;-65
2022/01/18 11:39:40;;;;;;;1999.90;999.90;;;7.40;99.90;;;;;;5071012;28;20066;-65
2022/01/18 11:42:09;;;;;;;1999.90;999.90;;;7.40;99.90;;;;;;5063093;28;20044;-66
2022/01/18 11:44:36;;;;;;;1999.90;999.90;;;7.40;99.90;;;;;;5050581;28;20398;-65
2022/01/18 11:47:04;;;;;;;1999.90;999.90;;;7.40;99.90;;;;;;5050898;28;20119;-65
2022/01/18 11:49:32;;;;;;;1999.90;999.90;;;7.30;99.90;;;;;;5050945;28;20052;-65
2022/01/18 11:52:03;;;;;;;1999.90;999.90;;;7.30;99.90;;;;;;5052540;28;20048;-65
2022/01/18 11:57:25;;;;;;;1999.90;999.90;;;7.30;99.90;;;;;;5054100;28;20048;-66
2022/01/18 11:59:52;;;;;;;1999.90;999.90;;;7.30;99.90;;;;;;5052948;28;20053;-66
2022/01/18 12:02:33;;;;;;;1999.90;999.90;;;7.30;99.90;;;;;;5055313;28;20091;-65
2022/01/18 12:05:06;;;;;;;1999.90;999.90;;;7.30;99.90;;;;;;5056094;28;20057;-65
2022/01/18 12:07:32;;;;;;;;;;;7.30;99.90;;;;;;5037497;28;20111;-65
2022/01/18 12:09:58;;;;;;;1999.90;999.90;;;7.30;99.90;;;;;;5055127;28;19925;-65
2022/01/18 12:12:40;;;;;;;1999.90;999.90;;;7.30;99.90;;;;;;5055827;28;20060;-65
2022/01/18 12:15:16;;;;;;;1999.90;999.90;;;7.30;99.90;;;;;;5066409;28;20086;-65
2022/01/18 12:17:51;;;;;;;1999.90;999.90;;;7.30;99.90;;;;;;5068258;28;20475;-66
2022/01/18 12:20:46;;;;;;;1999.90;999.90;;;7.30;99.90;;;;;;5054828;28;20080;-66
2022/01/18 12:23:20;;;;;;;1999.90;999.90;;;7.30;99.90;;;;;;5054231;28;20099;-65
2022/01/18 12:28:46;;;;;;;1999.90;999.90;;;7.30;99.90;;;;;;5054906;28;20041;-65
2022/01/18 12:31:52;;;;;;;1999.90;999.90;;;7.40;99.90;;;;;;5053805;28;20060;-66
2022/01/18 12:34:28;;;;;;;1999.90;999.90;;;7.20;99.90;;;;;;5054260;28;20053;-66
2022/01/18 12:39:49;;;;;;;1999.90;999.90;;;7.20;99.90;;;;;;5055565;28;20053;-66
2022/01/18 12:44:20;;;;;;;;;;;7.20;99.90;;;;;;5052951;28;20121;-66
2022/01/18 12:45:05;;;;;;;1999.90;999.90;;;7.10;99.90;;;;;;5052135;28;20310;-65
2022/01/18 12:47:34;;;;;;;1999.90;999.90;;;7.10;99.90;;;;;;5059522;28;20360;-65
2022/01/18 12:50:03;;;;;;;1999.90;999.90;;;7.10;99.90;;;;;;5073504;28;20041;-65
2022/01/18 12:52:54;;;;;;;1999.90;999.90;;;7.00;99.90;;;;;;5074906;28;20107;-65
2022/01/18 12:55:35;;;;;;;1999.90;999.90;;;7.00;99.90;;;;;;5075159;28;20044;-65
2022/01/18 12:58:04;;;;;;;1999.90;999.90;;;7.00;99.90;;;;;;5073251;28;20499;-66
2022/01/18 13:00:44;;;;;;;1999.90;999.90;;;7.00;99.90;;;;;;5058929;28;20049;-65
2022/01/18 13:03:16;;;;;;;1999.90;999.90;;;7.10;99.90;;;;;;5055096;28;20048;-65
2022/01/18 13:05:43;;;;;;;1999.90;999.90;;;7.00;99.90;;;;;;5062588;28;20123;-65
2022/01/18 13:08:11;;;;;;;1999.90;999.90;;;7.00;99.90;;;;;;5067311;28;20045;-65
2022/01/18 13:10:41;;;;;;;1999.90;999.90;;;7.00;99.90;;;;;;5054847;28;20045;-65
2022/01/18 13:13:08;;;;;;;1999.90;999.90;;;6.90;99.90;;;;;;5053546;28;20048;-65
2022/01/18 13:15:46;;;;;;;1999.90;999.90;;;6.90;99.90;;;;;;5055549;28;20106;-66
2022/01/18 13:23:54;;;;;;;1999.90;999.90;;;6.90;99.90;;;;;;5061688;28;20529;-66
2022/01/18 13:26:35;;;;;;;1999.90;999.90;;;6.80;99.90;;;;;;5066478;28;20045;-66
2022/01/18 13:29:18;;;;;;;1999.90;999.90;;;6.70;99.90;;;;;;5064048;28;20561;-66
2022/01/18 13:31:47;;;;;;;1999.90;999.90;;;6.70;99.90;;;;;;5054356;28;20037;-65
2022/01/18 13:34:15;;;;;;;1999.90;999.90;;;6.60;99.90;;;;;;5058175;28;20052;-65
2022/01/18 13:36:48;;;;;;;1999.90;999.90;;;6.70;99.90;;;;;;5073929;28;20495;-65
2022/01/18 13:39:28;;;;;;;;;;;6.70;99.90;;;;;;5073931;28;20036;-65
2022/01/18 13:41:56;;;;;;;1999.90;999.90;;;6.70;99.90;;;;;;5074177;28;19924;-65
2022/01/18 13:44:22;;;;;;;1999.90;999.90;;;6.70;99.90;;;;;;5060913;28;20045;-66